sensor_id;sensor_type;location;lat;lon;timestamp;pressure;altitude;pressure_sealevel;temperature;humidity
48800;BME280;34611;47.964;7.982;2023-02-28T00:06:33;97114.84;;;8.03;39.49
48800;BME280;34611;47.964;7.982;2023-02-28T00:13:35;97118.06;;;8.07;39.66
48800;BME280;34611;47.964;7.982;2023-02-28T00:20:35;97122.31;;;8.08;40.01
48800;BME280;34611;47.964;7.982;2023-02-28T00:27:36;97126.16;;;8.02;39.62
48800;BME280;34611;47.964;7.982;2023-02-28T00:34:38;97131.13;;;8.05;39.70
48800;BME280;34611;47.964;7.982;2023-02-28T00:41:38;97114.66;;;8.06;39.90
48800;BME280;34611;47.964;7.982;2023-02-28T00:48:38;97118.81;;;7.96;39.23
48800;BME280;34611;47.964;7.982;2023-02-28T00:55:39;97120.75;;;8.05;39.73
48800;BME280;34611;47.964;7.982;2023-02-28T01:02:39;97115.81;;;8.02;39.81
48800;BME280;34611;47.964;7.982;2023-02-28T01:09:39;97116.53;;;8.04;39.81
48800;BME280;34611;47.964;7.982;2023-02-28T01:16:40;97115.56;;;8.05;40.08
48800;BME280;34611;47.964;7.982;2023-02-28T01:23:40;97109.69;;;8.03;40.03
48800;BME280;34611;47.964;7.982;2023-02-28T01:30:41;97100.03;;;8.05;39.90
48800;BME280;34611;47.964;7.982;2023-02-28T01:37:41;97105.13;;;8.07;40.00
48800;BME280;34611;47.964;7.982;2023-02-28T01:44:55;97113.72;;;8.07;40.13
48800;BME280;34611;47.964;7.982;2023-02-28T01:51:56;97105.22;;;8.05;39.86
48800;BME280;34611;47.964;7.982;2023-02-28T01:58:59;97091.38;;;8.06;40.30
48800;BME280;34611;47.964;7.982;2023-02-28T02:05:59;97091.22;;;8.08;39.80
48800;BME280;34611;47.964;7.982;2023-02-28T02:20:29;97084.75;;;8.02;39.92
48800;BME280;34611;47.964;7.982;2023-02-28T02:48:41;97072.28;;;8.07;40.33
48800;BME280;34611;47.964;7.982;2023-02-28T02:55:44;97071.78;;;8.02;40.06
48800;BME280;34611;47.964;7.982;2023-02-28T03:02:47;97075.81;;;8.06;40.35
48800;BME280;34611;47.964;7.982;2023-02-28T03:09:51;97068.88;;;8.07;40.30
48800;BME280;34611;47.964;7.982;2023-02-28T03:24:10;97071.56;;;8.05;40.61
48800;BME280;34611;47.964;7.982;2023-02-28T03:38:13;97069.69;;;8.07;41.08
48800;BME280;34611;47.964;7.982;2023-02-28T03:45:17;97069.69;;;8.07;41.25
48800;BME280;34611;47.964;7.982;2023-02-28T03:52:18;97084.31;;;8.08;41.49
48800;BME280;34611;47.964;7.982;2023-02-28T04:06:29;97074.78;;;8.09;41.67
48800;BME280;34611;47.964;7.982;2023-02-28T04:13:30;97075.81;;;8.06;41.54
48800;BME280;34611;47.964;7.982;2023-02-28T04:20:31;97085.22;;;8.07;42.29
48800;BME280;34611;47.964;7.982;2023-02-28T04:27:31;97072.19;;;8.09;42.16
48800;BME280;34611;47.964;7.982;2023-02-28T04:34:31;97081.72;;;8.08;42.26
48800;BME280;34611;47.964;7.982;2023-02-28T04:41:32;97075.59;;;8.09;42.28
48800;BME280;34611;47.964;7.982;2023-02-28T04:48:33;97081.59;;;8.10;42.37
48800;BME280;34611;47.964;7.982;2023-02-28T04:55:34;97085.75;;;8.13;42.47
48800;BME280;34611;47.964;7.982;2023-02-28T05:02:34;97091.84;;;8.11;42.39
48800;BME280;34611;47.964;7.982;2023-02-28T05:09:35;97099.63;;;8.11;42.58
48800;BME280;34611;47.964;7.982;2023-02-28T05:16:35;97112.66;;;8.10;42.70
48800;BME280;34611;47.964;7.982;2023-02-28T05:23:36;97106.66;;;8.09;42.55
48800;BME280;34611;47.964;7.982;2023-02-28T05:30:36;97107.50;;;8.10;42.67
48800;BME280;34611;47.964;7.982;2023-02-28T05:37:37;97109.59;;;8.05;42.68
48800;BME280;34611;47.964;7.982;2023-02-28T05:44:37;97117.88;;;7.97;42.65
48800;BME280;34611;47.964;7.982;2023-02-28T05:51:37;97117.88;;;7.97;42.63
48800;BME280;34611;47.964;7.982;2023-02-28T05:58:39;97118.81;;;7.96;42.78
48800;BME280;34611;47.964;7.982;2023-02-28T06:05:39;97121.09;;;8.01;42.83
48800;BME280;34611;47.964;7.982;2023-02-28T06:12:40;97119.41;;;8.00;42.81
48800;BME280;34611;47.964;7.982;2023-02-28T06:19:41;97114.84;;;8.03;42.90
48800;BME280;34611;47.964;7.982;2023-02-28T06:26:41;97127.72;;;8.05;42.99
48800;BME280;34611;47.964;7.982;2023-02-28T06:33:42;97134.66;;;8.04;42.94
48800;BME280;34611;47.964;7.982;2023-02-28T06:40:43;97134.66;;;8.04;42.93
48800;BME280;34611;47.964;7.982;2023-02-28T06:47:43;97144.16;;;8.04;42.93
48800;BME280;34611;47.964;7.982;2023-02-28T06:54:44;97141.47;;;8.05;43.01
48800;BME280;34611;47.964;7.982;2023-02-28T07:01:44;97147.59;;;8.04;42.72
48800;BME280;34611;47.964;7.982;2023-02-28T07:08:45;97152.78;;;8.04;42.85
48800;BME280;34611;47.964;7.982;2023-02-28T07:15:52;97168.19;;;8.06;43.00
48800;BME280;34611;47.964;7.982;2023-02-28T07:22:52;97163.84;;;8.06;42.99
48800;BME280;34611;47.964;7.982;2023-02-28T07:29:56;97162.00;;;8.08;42.96
48800;BME280;34611;47.964;7.982;2023-02-28T07:36:56;97155.22;;;8.06;42.81
48800;BME280;34611;47.964;7.982;2023-02-28T07:43:57;97163.84;;;8.06;42.72
48800;BME280;34611;47.964;7.982;2023-02-28T07:50:59;97172.53;;;8.05;42.54
48800;BME280;34611;47.964;7.982;2023-02-28T07:58:00;97176.81;;;8.06;42.49
48800;BME280;34611;47.964;7.982;2023-02-28T08:05:00;97167.38;;;8.05;42.39
48800;BME280;34611;47.964;7.982;2023-02-28T08:12:02;97167.38;;;8.05;42.46
48800;BME280;34611;47.964;7.982;2023-02-28T08:19:02;97178.75;;;8.03;42.33
48800;BME280;34611;47.964;7.982;2023-02-28T08:26:03;97191.63;;;8.04;42.16
48800;BME280;34611;47.964;7.982;2023-02-28T08:33:03;97189.94;;;8.03;42.11
48800;BME280;34611;47.964;7.982;2023-02-28T08:40:03;97193.25;;;8.05;42.14
48800;BME280;34611;47.964;7.982;2023-02-28T08:47:04;97204.56;;;8.04;42.10
48800;BME280;34611;47.964;7.982;2023-02-28T08:54:04;97209.72;;;8.04;42.14
48800;BME280;34611;47.964;7.982;2023-02-28T09:01:11;97218.41;;;8.03;41.85
48800;BME280;34611;47.964;7.982;2023-02-28T09:08:12;97227.13;;;8.02;41.92
48800;BME280;34611;47.964;7.982;2023-02-28T09:15:12;97214.91;;;8.04;42.15
48800;BME280;34611;47.964;7.982;2023-02-28T09:22:12;97219.13;;;8.05;42.19
48800;BME280;34611;47.964;7.982;2023-02-28T09:29:13;97223.41;;;8.06;42.26
48800;BME280;34611;47.964;7.982;2023-02-28T09:36:14;97226.91;;;8.05;42.10
48800;BME280;34611;47.964;7.982;2023-02-28T09:43:14;97232.00;;;8.07;42.17
48800;BME280;34611;47.964;7.982;2023-02-28T09:50:35;97234.47;;;8.08;42.22
48800;BME280;34611;47.964;7.982;2023-02-28T09:57:39;97240.59;;;8.07;42.01
48800;BME280;34611;47.964;7.982;2023-02-28T10:04:50;97238.09;;;8.06;42.14
48800;BME280;34611;47.964;7.982;2023-02-28T10:11:56;97240.91;;;8.03;42.00
48800;BME280;34611;47.964;7.982;2023-02-28T10:19:04;97240.81;;;8.04;42.15
48800;BME280;34611;47.964;7.982;2023-02-28T10:26:09;97238.81;;;8.08;42.26
48800;BME280;34611;47.964;7.982;2023-02-28T10:33:18;97239.66;;;8.08;42.09
48800;BME280;34611;47.964;7.982;2023-02-28T10:47:20;97253.53;;;8.07;42.30
48800;BME280;34611;47.964;7.982;2023-02-28T10:54:22;97255.28;;;8.07;42.17
48800;BME280;34611;47.964;7.982;2023-02-28T11:01:24;97255.06;;;8.10;42.47
48800;BME280;34611;47.964;7.982;2023-02-28T11:08:25;97258.72;;;8.07;41.96
48800;BME280;34611;47.964;7.982;2023-02-28T11:15:29;97259.66;;;8.06;42.23
48800;BME280;34611;47.964;7.982;2023-02-28T11:22:31;97261.38;;;8.06;41.92
48800;BME280;34611;47.964;7.982;2023-02-28T11:29:33;97258.59;;;8.09;42.20
48800;BME280;34611;47.964;7.982;2023-02-28T11:36:34;97265.56;;;8.08;42.29
48800;BME280;34611;47.964;7.982;2023-02-28T11:43:59;97257.78;;;8.08;42.51
48800;BME280;34611;47.964;7.982;2023-02-28T12:05:38;97250.63;;;8.12;42.55
48800;BME280;34611;47.964;7.982;2023-02-28T12:20:02;97244.63;;;8.11;42.27
48800;BME280;34611;47.964;7.982;2023-02-28T12:27:07;97235.94;;;8.13;42.44
48800;BME280;34611;47.964;7.982;2023-02-28T12:34:10;97241.84;;;8.15;42.51
48800;BME280;34611;47.964;7.982;2023-02-28T12:41:13;97232.41;;;8.14;42.44
48800;BME280;34611;47.964;7.982;2023-02-28T12:48:15;97242.75;;;8.14;42.44
48800;BME280;34611;47.964;7.982;2023-02-28T12:55:21;97232.41;;;8.14;42.38
48800;BME280;34611;47.964;7.982;2023-02-28T13:09:40;97217.69;;;8.14;42.25
48800;BME280;34611;47.964;7.982;2023-02-28T13:24:01;97215.00;;;8.16;42.60
48800;BME280;34611;47.964;7.982;2023-02-28T13:31:05;97221.00;;;8.16;42.41
48800;BME280;34611;47.964;7.982;2023-02-28T13:38:12;97225.44;;;8.14;42.37
48800;BME280;34611;47.964;7.982;2023-02-28T13:45:22;97221.13;;;8.15;42.45
48800;BME280;34611;47.964;7.982;2023-02-28T13:52:23;97227.03;;;8.17;42.72
48800;BME280;34611;47.964;7.982;2023-02-28T14:06:52;97234.06;;;8.15;42.42
48800;BME280;34611;47.964;7.982;2023-02-28T14:13:53;97235.00;;;8.14;42.36
48800;BME280;34611;47.964;7.982;2023-02-28T14:20:58;97253.13;;;8.14;42.36
48800;BME280;34611;47.964;7.982;2023-02-28T14:35:25;97255.81;;;8.12;42.39
48800;BME280;34611;47.964;7.982;2023-02-28T14:42:33;97246.16;;;8.14;42.54
48800;BME280;34611;47.964;7.982;2023-02-28T14:49:34;97251.47;;;8.13;42.38
48800;BME280;34611;47.964;7.982;2023-02-28T14:56:36;97247.75;;;8.17;42.60
48800;BME280;34611;47.964;7.982;2023-02-28T15:03:38;97261.59;;;8.16;42.63
48800;BME280;34611;47.964;7.982;2023-02-28T15:10:39;97252.38;;;8.11;42.60
48800;BME280;34611;47.964;7.982;2023-02-28T15:17:40;97251.34;;;8.14;42.50
48800;BME280;34611;47.964;7.982;2023-02-28T15:24:46;97260.78;;;8.15;42.62
48800;BME280;34611;47.964;7.982;2023-02-28T15:32:24;97262.66;;;8.13;42.23
48800;BME280;34611;47.964;7.982;2023-02-28T15:39:19;97273.00;;;8.13;42.28
48800;BME280;34611;47.964;7.982;2023-02-28T15:46:19;97269.47;;;8.14;42.32
48800;BME280;34611;47.964;7.982;2023-02-28T15:53:24;97268.66;;;8.14;42.55
48800;BME280;34611;47.964;7.982;2023-02-28T16:00:26;97254.06;;;8.13;42.34
48800;BME280;34611;47.964;7.982;2023-02-28T16:07:27;97260.16;;;8.11;42.29
48800;BME280;34611;47.964;7.982;2023-02-28T16:14:28;97261.94;;;8.11;42.16
48800;BME280;34611;47.964;7.982;2023-02-28T16:21:31;97270.50;;;8.11;42.47
48800;BME280;34611;47.964;7.982;2023-02-28T16:28:35;97280.06;;;8.11;42.10
48800;BME280;34611;47.964;7.982;2023-02-28T16:35:36;97277.56;;;8.09;42.21
48800;BME280;34611;47.964;7.982;2023-02-28T16:42:36;97284.41;;;8.10;42.27
48800;BME280;34611;47.964;7.982;2023-02-28T16:49:37;97287.00;;;8.10;42.54
48800;BME280;34611;47.964;7.982;2023-02-28T16:56:39;97293.91;;;8.10;42.48
48800;BME280;34611;47.964;7.982;2023-02-28T17:03:42;97298.38;;;8.08;42.59
48800;BME280;34611;47.964;7.982;2023-02-28T17:10:43;97300.13;;;8.07;42.37
48800;BME280;34611;47.964;7.982;2023-02-28T17:17:43;97311.31;;;8.08;42.77
48800;BME280;34611;47.964;7.982;2023-02-28T17:24:44;97315.66;;;8.07;42.67
48800;BME280;34611;47.964;7.982;2023-02-28T17:31:47;97324.38;;;8.06;42.72
48800;BME280;34611;47.964;7.982;2023-02-28T17:38:48;97335.66;;;8.05;42.86
48800;BME280;34611;47.964;7.982;2023-02-28T17:45:48;97337.41;;;8.05;42.82
48800;BME280;34611;47.964;7.982;2023-02-28T17:52:48;97347.78;;;8.05;42.56
48800;BME280;34611;47.964;7.982;2023-02-28T17:59:50;97345.28;;;8.03;42.54
48800;BME280;34611;47.964;7.982;2023-02-28T18:06:50;97347.03;;;8.03;42.61
48800;BME280;34611;47.964;7.982;2023-02-28T18:13:52;97343.81;;;7.99;42.59
48800;BME280;34611;47.964;7.982;2023-02-28T18:20:52;97340.31;;;8.00;42.75
48800;BME280;34611;47.964;7.982;2023-02-28T18:27:53;97342.69;;;8.03;42.77
48800;BME280;34611;47.964;7.982;2023-02-28T18:34:57;97344.47;;;8.03;42.75
48800;BME280;34611;47.964;7.982;2023-02-28T18:41:57;97342.69;;;8.03;42.60
48800;BME280;34611;47.964;7.982;2023-02-28T18:48:57;97343.63;;;8.02;42.83
48800;BME280;34611;47.964;7.982;2023-02-28T18:55:59;97338.56;;;8.01;42.79
48800;BME280;34611;47.964;7.982;2023-02-28T19:02:59;97337.72;;;8.00;42.75
48800;BME280;34611;47.964;7.982;2023-02-28T19:10:00;97339.38;;;8.01;42.78
48800;BME280;34611;47.964;7.982;2023-02-28T19:17:01;97343.00;;;7.99;42.73
48800;BME280;34611;47.964;7.982;2023-02-28T19:24:01;97332.66;;;7.99;42.77
48800;BME280;34611;47.964;7.982;2023-02-28T19:31:02;97335.31;;;7.97;42.70
48800;BME280;34611;47.964;7.982;2023-02-28T19:38:02;97336.28;;;7.96;42.82
48800;BME280;34611;47.964;7.982;2023-02-28T19:45:02;97334.50;;;7.97;42.77
48800;BME280;34611;47.964;7.982;2023-02-28T19:52:03;97323.50;;;7.93;42.62
48800;BME280;34611;47.964;7.982;2023-02-28T19:59:03;97318.34;;;7.93;42.59
48800;BME280;34611;47.964;7.982;2023-02-28T20:06:05;97306.44;;;7.90;42.64
48800;BME280;34611;47.964;7.982;2023-02-28T20:13:08;97308.72;;;7.95;42.69
48800;BME280;34611;47.964;7.982;2023-02-28T20:20:09;97310.47;;;7.95;42.81
48800;BME280;34611;47.964;7.982;2023-02-28T20:27:10;97306.22;;;7.94;42.79
48800;BME280;34611;47.964;7.982;2023-02-28T20:34:10;97312.34;;;7.93;42.63
48800;BME280;34611;47.964;7.982;2023-02-28T20:41:11;97310.16;;;7.86;42.67
48800;BME280;34611;47.964;7.982;2023-02-28T20:48:12;97301.16;;;7.92;42.63
48800;BME280;34611;47.964;7.982;2023-02-28T20:55:12;97302.06;;;7.91;42.81
48800;BME280;34611;47.964;7.982;2023-02-28T21:02:16;97307.16;;;7.93;42.76
48800;BME280;34611;47.964;7.982;2023-02-28T21:09:18;97298.56;;;7.92;42.68
48800;BME280;34611;47.964;7.982;2023-02-28T21:16:19;97294.22;;;7.93;42.73
48800;BME280;34611;47.964;7.982;2023-02-28T21:23:20;97294.31;;;7.91;42.73
48800;BME280;34611;47.964;7.982;2023-02-28T21:30:21;97290.81;;;7.92;42.65
48800;BME280;34611;47.964;7.982;2023-02-28T21:37:21;97283.84;;;7.93;42.72
48800;BME280;34611;47.964;7.982;2023-02-28T21:44:21;97278.78;;;7.91;42.71
48800;BME280;34611;47.964;7.982;2023-02-28T21:51:26;97271.84;;;7.91;42.64
48800;BME280;34611;47.964;7.982;2023-02-28T21:58:27;97265.84;;;7.91;42.68
48800;BME280;34611;47.964;7.982;2023-02-28T22:05:28;97264.91;;;7.92;42.68
48800;BME280;34611;47.964;7.982;2023-02-28T22:12:29;97269.25;;;7.91;42.54
48800;BME280;34611;47.964;7.982;2023-02-28T22:19:29;97278.78;;;7.91;42.56
48800;BME280;34611;47.964;7.982;2023-02-28T22:26:30;97282.19;;;7.91;42.64
48800;BME280;34611;47.964;7.982;2023-02-28T22:33:30;97277.88;;;7.92;42.74
48800;BME280;34611;47.964;7.982;2023-02-28T22:40:30;97269.38;;;7.90;42.83
48800;BME280;34611;47.964;7.982;2023-02-28T22:47:30;97259.94;;;7.89;42.64
48800;BME280;34611;47.964;7.982;2023-02-28T22:54:31;97263.25;;;7.91;42.52
48800;BME280;34611;47.964;7.982;2023-02-28T23:01:31;97269.25;;;7.91;42.56
48800;BME280;34611;47.964;7.982;2023-02-28T23:08:32;97263.34;;;7.89;42.67
48800;BME280;34611;47.964;7.982;2023-02-28T23:15:32;97259.00;;;7.90;42.59
48800;BME280;34611;47.964;7.982;2023-02-28T23:22:32;97258.16;;;7.89;42.65
48800;BME280;34611;47.964;7.982;2023-02-28T23:29:33;97263.16;;;7.93;42.55
48800;BME280;34611;47.964;7.982;2023-02-28T23:36:34;97253.94;;;7.88;42.47
48800;BME280;34611;47.964;7.982;2023-02-28T23:43:34;97252.88;;;7.91;42.56
48800;BME280;34611;47.964;7.982;2023-02-28T23:50:36;97251.25;;;7.90;42.54
48800;BME280;34611;47.964;7.982;2023-02-28T23:57:36;97255.56;;;7.89;42.60
